sensor_id;sensor_type;location;lat;lon;timestamp;P1;durP1;ratioP1;P2;durP2;ratioP2
16994;SDS011;8614;48.522;9.206;2022-12-18T03:02:50;42.10;;;27.37;;
16994;SDS011;8614;48.522;9.206;2022-12-18T03:05:22;36.93;;;26.80;;
16994;SDS011;8614;48.522;9.206;2022-12-18T03:07:53;34.93;;;26.23;;
16994;SDS011;8614;48.522;9.206;2022-12-18T03:10:29;39.07;;;26.83;;
16994;SDS011;8614;48.522;9.206;2022-12-18T03:13:02;49.23;;;28.97;;
16994;SDS011;8614;48.522;9.206;2022-12-18T03:15:31;43.43;;;28.27;;
16994;SDS011;8614;48.522;9.206;2022-12-18T03:18:10;41.17;;;30.00;;
16994;SDS011;8614;48.522;9.206;2022-12-18T03:20:41;45.53;;;28.57;;
16994;SDS011;8614;48.522;9.206;2022-12-18T03:23:15;50.87;;;29.53;;
16994;SDS011;8614;48.522;9.206;2022-12-18T03:25:47;55.27;;;30.67;;
16994;SDS011;8614;48.522;9.206;2022-12-18T03:28:21;54.20;;;30.57;;
16994;SDS011;8614;48.522;9.206;2022-12-18T03:30:55;50.70;;;32.00;;
16994;SDS011;8614;48.522;9.206;2022-12-18T03:33:27;50.83;;;30.50;;
16994;SDS011;8614;48.522;9.206;2022-12-18T03:35:56;44.30;;;29.00;;
16994;SDS011;8614;48.522;9.206;2022-12-18T03:38:24;43.87;;;30.27;;
16994;SDS011;8614;48.522;9.206;2022-12-18T03:40:55;46.37;;;30.33;;
16994;SDS011;8614;48.522;9.206;2022-12-18T03:43:32;55.47;;;32.57;;
16994;SDS011;8614;48.522;9.206;2022-12-18T03:46:06;53.80;;;30.83;;
16994;SDS011;8614;48.522;9.206;2022-12-18T03:48:41;46.73;;;30.17;;
16994;SDS011;8614;48.522;9.206;2022-12-18T03:51:16;44.13;;;27.47;;
16994;SDS011;8614;48.522;9.206;2022-12-18T03:53:50;44.73;;;28.93;;
16994;SDS011;8614;48.522;9.206;2022-12-18T03:56:29;36.93;;;27.97;;
16994;SDS011;8614;48.522;9.206;2022-12-18T03:58:58;41.20;;;28.30;;
16994;SDS011;8614;48.522;9.206;2022-12-18T04:01:30;43.70;;;27.63;;
16994;SDS011;8614;48.522;9.206;2022-12-18T04:04:01;49.07;;;29.37;;
16994;SDS011;8614;48.522;9.206;2022-12-18T04:06:33;41.27;;;28.20;;
16994;SDS011;8614;48.522;9.206;2022-12-18T04:09:01;43.03;;;28.83;;
16994;SDS011;8614;48.522;9.206;2022-12-18T04:11:33;46.53;;;28.47;;
16994;SDS011;8614;48.522;9.206;2022-12-18T04:14:02;45.43;;;29.67;;
16994;SDS011;8614;48.522;9.206;2022-12-18T04:16:30;47.13;;;28.97;;
16994;SDS011;8614;48.522;9.206;2022-12-18T04:19:02;46.70;;;29.67;;
16994;SDS011;8614;48.522;9.206;2022-12-18T04:21:34;44.13;;;28.43;;
16994;SDS011;8614;48.522;9.206;2022-12-18T04:24:02;38.70;;;27.87;;
16994;SDS011;8614;48.522;9.206;2022-12-18T04:26:29;42.07;;;27.90;;
16994;SDS011;8614;48.522;9.206;2022-12-18T04:29:08;50.63;;;30.10;;
16994;SDS011;8614;48.522;9.206;2022-12-18T04:31:36;46.23;;;28.37;;
16994;SDS011;8614;48.522;9.206;2022-12-18T04:34:05;44.30;;;28.17;;
16994;SDS011;8614;48.522;9.206;2022-12-18T04:36:38;42.07;;;28.73;;
16994;SDS011;8614;48.522;9.206;2022-12-18T04:39:05;43.90;;;27.00;;
16994;SDS011;8614;48.522;9.206;2022-12-18T04:41:33;41.23;;;26.30;;
16994;SDS011;8614;48.522;9.206;2022-12-18T04:44:00;41.67;;;26.70;;
16994;SDS011;8614;48.522;9.206;2022-12-18T04:46:27;36.83;;;25.33;;
16994;SDS011;8614;48.522;9.206;2022-12-18T04:48:54;37.40;;;26.67;;
16994;SDS011;8614;48.522;9.206;2022-12-18T04:51:22;37.73;;;26.13;;
16994;SDS011;8614;48.522;9.206;2022-12-18T04:53:49;35.33;;;25.33;;
16994;SDS011;8614;48.522;9.206;2022-12-18T04:56:16;38.50;;;26.77;;
16994;SDS011;8614;48.522;9.206;2022-12-18T04:58:44;42.03;;;27.93;;
16994;SDS011;8614;48.522;9.206;2022-12-18T05:01:11;40.07;;;27.03;;
16994;SDS011;8614;48.522;9.206;2022-12-18T05:03:39;39.27;;;27.40;;
16994;SDS011;8614;48.522;9.206;2022-12-18T05:06:06;37.73;;;27.30;;
16994;SDS011;8614;48.522;9.206;2022-12-18T05:08:35;35.83;;;25.77;;
16994;SDS011;8614;48.522;9.206;2022-12-18T05:11:03;40.23;;;27.00;;
16994;SDS011;8614;48.522;9.206;2022-12-18T05:13:31;42.40;;;27.00;;
16994;SDS011;8614;48.522;9.206;2022-12-18T05:15:59;43.83;;;28.67;;
16994;SDS011;8614;48.522;9.206;2022-12-18T05:18:26;36.70;;;26.87;;
16994;SDS011;8614;48.522;9.206;2022-12-18T05:20:53;39.60;;;27.57;;
16994;SDS011;8614;48.522;9.206;2022-12-18T05:23:21;40.90;;;27.00;;
16994;SDS011;8614;48.522;9.206;2022-12-18T05:25:51;40.50;;;27.30;;
16994;SDS011;8614;48.522;9.206;2022-12-18T05:28:19;37.60;;;25.37;;
16994;SDS011;8614;48.522;9.206;2022-12-18T05:30:47;40.33;;;26.30;;
16994;SDS011;8614;48.522;9.206;2022-12-18T05:33:15;43.10;;;27.70;;
16994;SDS011;8614;48.522;9.206;2022-12-18T05:35:42;48.73;;;28.03;;
16994;SDS011;8614;48.522;9.206;2022-12-18T05:38:09;43.33;;;27.30;;
16994;SDS011;8614;48.522;9.206;2022-12-18T05:40:36;40.90;;;28.10;;
16994;SDS011;8614;48.522;9.206;2022-12-18T05:43:04;41.30;;;27.33;;
16994;SDS011;8614;48.522;9.206;2022-12-18T05:45:31;36.80;;;25.50;;
16994;SDS011;8614;48.522;9.206;2022-12-18T05:47:58;35.40;;;23.90;;
16994;SDS011;8614;48.522;9.206;2022-12-18T05:50:25;35.40;;;27.13;;
16994;SDS011;8614;48.522;9.206;2022-12-18T05:52:52;41.93;;;27.97;;
16994;SDS011;8614;48.522;9.206;2022-12-18T05:55:18;42.03;;;27.50;;
16994;SDS011;8614;48.522;9.206;2022-12-18T05:57:45;40.67;;;26.50;;
16994;SDS011;8614;48.522;9.206;2022-12-18T06:00:14;40.57;;;25.37;;
16994;SDS011;8614;48.522;9.206;2022-12-18T06:02:42;43.93;;;26.60;;
16994;SDS011;8614;48.522;9.206;2022-12-18T06:05:12;39.37;;;24.73;;
16994;SDS011;8614;48.522;9.206;2022-12-18T06:07:39;47.27;;;27.27;;
16994;SDS011;8614;48.522;9.206;2022-12-18T06:10:06;40.33;;;26.67;;
16994;SDS011;8614;48.522;9.206;2022-12-18T06:12:33;40.17;;;25.57;;
16994;SDS011;8614;48.522;9.206;2022-12-18T06:15:00;40.10;;;25.57;;
16994;SDS011;8614;48.522;9.206;2022-12-18T06:17:29;32.33;;;23.33;;
16994;SDS011;8614;48.522;9.206;2022-12-18T06:19:55;40.33;;;25.47;;
16994;SDS011;8614;48.522;9.206;2022-12-18T06:22:22;40.50;;;25.30;;
16994;SDS011;8614;48.522;9.206;2022-12-18T06:24:50;31.10;;;24.30;;
16994;SDS011;8614;48.522;9.206;2022-12-18T06:27:17;35.33;;;25.50;;
16994;SDS011;8614;48.522;9.206;2022-12-18T06:29:44;30.70;;;25.37;;
16994;SDS011;8614;48.522;9.206;2022-12-18T06:32:10;33.90;;;25.97;;
16994;SDS011;8614;48.522;9.206;2022-12-18T06:34:39;36.33;;;25.70;;
16994;SDS011;8614;48.522;9.206;2022-12-18T06:37:06;40.47;;;27.47;;
16994;SDS011;8614;48.522;9.206;2022-12-18T06:39:33;37.20;;;26.03;;
16994;SDS011;8614;48.522;9.206;2022-12-18T06:42:00;43.23;;;28.40;;
16994;SDS011;8614;48.522;9.206;2022-12-18T06:44:27;43.07;;;26.57;;
16994;SDS011;8614;48.522;9.206;2022-12-18T06:46:54;43.57;;;28.70;;
16994;SDS011;8614;48.522;9.206;2022-12-18T06:49:21;41.93;;;26.57;;
16994;SDS011;8614;48.522;9.206;2022-12-18T06:51:49;46.27;;;27.47;;
16994;SDS011;8614;48.522;9.206;2022-12-18T06:54:15;41.37;;;28.67;;
16994;SDS011;8614;48.522;9.206;2022-12-18T06:56:44;37.77;;;25.83;;
16994;SDS011;8614;48.522;9.206;2022-12-18T06:59:12;46.93;;;28.53;;
16994;SDS011;8614;48.522;9.206;2022-12-18T07:01:39;42.50;;;27.90;;
16994;SDS011;8614;48.522;9.206;2022-12-18T07:04:06;42.53;;;25.73;;
16994;SDS011;8614;48.522;9.206;2022-12-18T07:06:33;45.60;;;27.47;;
16994;SDS011;8614;48.522;9.206;2022-12-18T07:09:01;42.03;;;26.00;;
16994;SDS011;8614;48.522;9.206;2022-12-18T07:11:28;35.57;;;24.97;;
16994;SDS011;8614;48.522;9.206;2022-12-18T07:13:55;39.07;;;26.37;;
16994;SDS011;8614;48.522;9.206;2022-12-18T07:16:22;40.50;;;25.27;;
16994;SDS011;8614;48.522;9.206;2022-12-18T07:18:49;38.25;;;26.10;;
16994;SDS011;8614;48.522;9.206;2022-12-18T07:21:16;37.60;;;26.90;;
16994;SDS011;8614;48.522;9.206;2022-12-18T07:23:45;40.37;;;25.43;;
16994;SDS011;8614;48.522;9.206;2022-12-18T07:26:14;42.53;;;25.87;;
16994;SDS011;8614;48.522;9.206;2022-12-18T07:28:43;41.87;;;26.33;;
16994;SDS011;8614;48.522;9.206;2022-12-18T07:31:10;39.60;;;26.40;;
16994;SDS011;8614;48.522;9.206;2022-12-18T07:33:38;44.20;;;27.87;;
16994;SDS011;8614;48.522;9.206;2022-12-18T07:36:06;43.03;;;29.20;;
16994;SDS011;8614;48.522;9.206;2022-12-18T07:38:40;45.83;;;26.03;;
16994;SDS011;8614;48.522;9.206;2022-12-18T07:41:10;44.37;;;27.07;;
16994;SDS011;8614;48.522;9.206;2022-12-18T07:43:46;41.00;;;25.47;;
16994;SDS011;8614;48.522;9.206;2022-12-18T07:46:14;44.43;;;28.50;;
16994;SDS011;8614;48.522;9.206;2022-12-18T07:48:41;42.57;;;28.17;;
16994;SDS011;8614;48.522;9.206;2022-12-18T07:51:08;42.90;;;26.87;;
16994;SDS011;8614;48.522;9.206;2022-12-18T07:53:38;42.23;;;27.37;;
16994;SDS011;8614;48.522;9.206;2022-12-18T07:56:06;40.67;;;26.87;;
16994;SDS011;8614;48.522;9.206;2022-12-18T07:58:35;36.47;;;25.83;;
16994;SDS011;8614;48.522;9.206;2022-12-18T08:01:08;34.70;;;26.47;;
16994;SDS011;8614;48.522;9.206;2022-12-18T08:03:36;40.17;;;26.03;;
16994;SDS011;8614;48.522;9.206;2022-12-18T08:06:05;35.23;;;25.53;;
16994;SDS011;8614;48.522;9.206;2022-12-18T08:08:34;35.73;;;26.63;;
16994;SDS011;8614;48.522;9.206;2022-12-18T08:11:01;44.43;;;27.40;;
16994;SDS011;8614;48.522;9.206;2022-12-18T08:13:28;43.77;;;27.73;;
16994;SDS011;8614;48.522;9.206;2022-12-18T08:15:55;40.00;;;27.83;;
16994;SDS011;8614;48.522;9.206;2022-12-18T08:18:32;36.77;;;27.23;;
16994;SDS011;8614;48.522;9.206;2022-12-18T08:21:07;33.60;;;25.77;;
16994;SDS011;8614;48.522;9.206;2022-12-18T08:23:54;35.60;;;25.30;;
16994;SDS011;8614;48.522;9.206;2022-12-18T08:27:29;34.93;;;25.83;;
16994;SDS011;8614;48.522;9.206;2022-12-18T08:30:42;31.43;;;23.97;;
16994;SDS011;8614;48.522;9.206;2022-12-18T08:34:12;36.37;;;26.10;;
16994;SDS011;8614;48.522;9.206;2022-12-18T08:37:21;38.87;;;25.73;;
16994;SDS011;8614;48.522;9.206;2022-12-18T08:44:33;36.10;;;28.50;;
16994;SDS011;8614;48.522;9.206;2022-12-18T08:47:03;41.77;;;27.53;;
16994;SDS011;8614;48.522;9.206;2022-12-18T08:49:32;39.60;;;27.27;;
16994;SDS011;8614;48.522;9.206;2022-12-18T08:51:59;40.87;;;27.20;;
16994;SDS011;8614;48.522;9.206;2022-12-18T08:54:27;42.57;;;28.77;;
16994;SDS011;8614;48.522;9.206;2022-12-18T08:56:55;35.70;;;27.47;;
16994;SDS011;8614;48.522;9.206;2022-12-18T08:59:22;35.70;;;26.27;;
16994;SDS011;8614;48.522;9.206;2022-12-18T09:01:49;40.23;;;27.57;;
16994;SDS011;8614;48.522;9.206;2022-12-18T09:04:16;43.33;;;27.83;;
16994;SDS011;8614;48.522;9.206;2022-12-18T09:06:44;42.17;;;27.60;;
16994;SDS011;8614;48.522;9.206;2022-12-18T09:09:11;38.17;;;27.17;;
16994;SDS011;8614;48.522;9.206;2022-12-18T09:11:38;38.97;;;27.23;;
16994;SDS011;8614;48.522;9.206;2022-12-18T09:14:05;39.17;;;27.73;;
16994;SDS011;8614;48.522;9.206;2022-12-18T09:16:32;39.47;;;27.77;;
16994;SDS011;8614;48.522;9.206;2022-12-18T09:19:00;39.77;;;26.93;;
16994;SDS011;8614;48.522;9.206;2022-12-18T09:21:29;38.87;;;26.17;;
16994;SDS011;8614;48.522;9.206;2022-12-18T09:23:58;39.43;;;26.03;;
16994;SDS011;8614;48.522;9.206;2022-12-18T09:26:25;37.53;;;27.67;;
16994;SDS011;8614;48.522;9.206;2022-12-18T09:28:53;41.47;;;28.53;;
16994;SDS011;8614;48.522;9.206;2022-12-18T09:31:22;42.13;;;29.73;;
16994;SDS011;8614;48.522;9.206;2022-12-18T09:33:49;41.37;;;28.30;;
16994;SDS011;8614;48.522;9.206;2022-12-18T09:36:16;43.60;;;28.37;;
16994;SDS011;8614;48.522;9.206;2022-12-18T09:38:44;38.87;;;27.70;;
16994;SDS011;8614;48.522;9.206;2022-12-18T09:41:17;42.30;;;28.00;;
16994;SDS011;8614;48.522;9.206;2022-12-18T09:44:00;44.03;;;28.53;;
16994;SDS011;8614;48.522;9.206;2022-12-18T09:46:32;38.60;;;27.37;;
16994;SDS011;8614;48.522;9.206;2022-12-18T09:49:05;40.87;;;28.00;;
16994;SDS011;8614;48.522;9.206;2022-12-18T09:51:39;39.43;;;27.77;;
16994;SDS011;8614;48.522;9.206;2022-12-18T09:54:11;50.10;;;29.37;;
16994;SDS011;8614;48.522;9.206;2022-12-18T09:56:43;44.60;;;29.07;;
16994;SDS011;8614;48.522;9.206;2022-12-18T09:59:15;42.07;;;28.93;;
16994;SDS011;8614;48.522;9.206;2022-12-18T10:01:47;45.17;;;28.43;;
16994;SDS011;8614;48.522;9.206;2022-12-18T10:04:14;46.23;;;30.13;;
16994;SDS011;8614;48.522;9.206;2022-12-18T10:06:42;46.67;;;30.63;;
16994;SDS011;8614;48.522;9.206;2022-12-18T10:09:17;47.77;;;30.03;;
16994;SDS011;8614;48.522;9.206;2022-12-18T10:11:55;47.60;;;30.30;;
16994;SDS011;8614;48.522;9.206;2022-12-18T10:14:30;44.33;;;30.53;;
16994;SDS011;8614;48.522;9.206;2022-12-18T10:17:07;45.17;;;30.37;;
16994;SDS011;8614;48.522;9.206;2022-12-18T10:19:43;44.00;;;29.40;;
16994;SDS011;8614;48.522;9.206;2022-12-18T10:22:19;47.03;;;28.70;;
16994;SDS011;8614;48.522;9.206;2022-12-18T10:24:52;45.23;;;29.73;;
16994;SDS011;8614;48.522;9.206;2022-12-18T10:27:26;42.83;;;29.30;;
16994;SDS011;8614;48.522;9.206;2022-12-18T10:29:53;50.17;;;32.30;;
16994;SDS011;8614;48.522;9.206;2022-12-18T10:32:21;46.83;;;32.03;;
16994;SDS011;8614;48.522;9.206;2022-12-18T10:34:50;47.13;;;32.57;;
16994;SDS011;8614;48.522;9.206;2022-12-18T10:37:19;56.70;;;34.17;;
16994;SDS011;8614;48.522;9.206;2022-12-18T10:39:47;47.37;;;31.93;;
16994;SDS011;8614;48.522;9.206;2022-12-18T10:42:34;41.90;;;30.10;;
16994;SDS011;8614;48.522;9.206;2022-12-18T10:45:05;44.70;;;31.33;;
16994;SDS011;8614;48.522;9.206;2022-12-18T10:47:36;49.07;;;31.63;;
16994;SDS011;8614;48.522;9.206;2022-12-18T10:50:11;44.50;;;31.93;;
16994;SDS011;8614;48.522;9.206;2022-12-18T10:52:52;49.23;;;31.73;;
16994;SDS011;8614;48.522;9.206;2022-12-18T10:55:21;51.53;;;34.97;;
16994;SDS011;8614;48.522;9.206;2022-12-18T10:57:49;50.63;;;33.33;;
16994;SDS011;8614;48.522;9.206;2022-12-18T11:00:22;45.77;;;31.80;;
16994;SDS011;8614;48.522;9.206;2022-12-18T11:02:51;47.47;;;33.23;;
16994;SDS011;8614;48.522;9.206;2022-12-18T11:05:26;51.20;;;33.50;;
16994;SDS011;8614;48.522;9.206;2022-12-18T11:07:54;47.50;;;32.87;;
16994;SDS011;8614;48.522;9.206;2022-12-18T11:10:22;53.80;;;35.50;;
16994;SDS011;8614;48.522;9.206;2022-12-18T11:12:53;50.37;;;34.07;;
16994;SDS011;8614;48.522;9.206;2022-12-18T11:15:21;48.13;;;33.97;;
16994;SDS011;8614;48.522;9.206;2022-12-18T11:17:52;46.93;;;34.00;;
16994;SDS011;8614;48.522;9.206;2022-12-18T11:20:20;56.03;;;34.17;;
16994;SDS011;8614;48.522;9.206;2022-12-18T11:22:57;49.80;;;33.43;;
16994;SDS011;8614;48.522;9.206;2022-12-18T11:25:26;52.17;;;35.50;;
16994;SDS011;8614;48.522;9.206;2022-12-18T11:27:55;61.40;;;38.23;;
16994;SDS011;8614;48.522;9.206;2022-12-18T11:30:25;56.33;;;37.07;;
16994;SDS011;8614;48.522;9.206;2022-12-18T11:32:58;57.83;;;36.87;;
16994;SDS011;8614;48.522;9.206;2022-12-18T11:35:35;51.37;;;35.20;;
16994;SDS011;8614;48.522;9.206;2022-12-18T11:38:10;48.77;;;34.90;;
16994;SDS011;8614;48.522;9.206;2022-12-18T11:40:45;54.40;;;36.37;;
16994;SDS011;8614;48.522;9.206;2022-12-18T11:43:18;49.83;;;35.20;;
16994;SDS011;8614;48.522;9.206;2022-12-18T11:45:52;57.17;;;36.57;;
16994;SDS011;8614;48.522;9.206;2022-12-18T11:48:23;51.63;;;36.20;;
16994;SDS011;8614;48.522;9.206;2022-12-18T11:50:53;55.70;;;35.87;;
16994;SDS011;8614;48.522;9.206;2022-12-18T11:53:21;48.37;;;35.40;;
16994;SDS011;8614;48.522;9.206;2022-12-18T11:55:51;49.27;;;34.73;;
16994;SDS011;8614;48.522;9.206;2022-12-18T11:58:42;50.40;;;36.47;;
16994;SDS011;8614;48.522;9.206;2022-12-18T12:01:16;53.70;;;35.77;;
16994;SDS011;8614;48.522;9.206;2022-12-18T12:03:55;52.70;;;36.50;;
16994;SDS011;8614;48.522;9.206;2022-12-18T12:06:45;53.07;;;37.03;;
16994;SDS011;8614;48.522;9.206;2022-12-18T12:09:21;51.80;;;35.43;;
16994;SDS011;8614;48.522;9.206;2022-12-18T12:11:57;50.00;;;38.17;;
16994;SDS011;8614;48.522;9.206;2022-12-18T12:14:46;57.57;;;37.20;;
16994;SDS011;8614;48.522;9.206;2022-12-18T12:17:22;55.83;;;36.70;;
16994;SDS011;8614;48.522;9.206;2022-12-18T12:19:57;56.73;;;38.90;;
16994;SDS011;8614;48.522;9.206;2022-12-18T12:22:31;60.07;;;37.87;;
16994;SDS011;8614;48.522;9.206;2022-12-18T12:25:13;58.57;;;37.10;;
16994;SDS011;8614;48.522;9.206;2022-12-18T12:27:52;51.13;;;35.70;;
16994;SDS011;8614;48.522;9.206;2022-12-18T12:30:30;59.63;;;39.33;;
16994;SDS011;8614;48.522;9.206;2022-12-18T12:33:09;54.70;;;37.73;;
16994;SDS011;8614;48.522;9.206;2022-12-18T12:35:46;55.73;;;38.43;;
16994;SDS011;8614;48.522;9.206;2022-12-18T12:38:21;59.30;;;39.07;;
16994;SDS011;8614;48.522;9.206;2022-12-18T12:40:52;58.67;;;39.90;;
16994;SDS011;8614;48.522;9.206;2022-12-18T12:43:25;61.27;;;40.03;;
16994;SDS011;8614;48.522;9.206;2022-12-18T12:45:58;54.53;;;38.90;;
16994;SDS011;8614;48.522;9.206;2022-12-18T12:48:37;57.17;;;40.23;;
16994;SDS011;8614;48.522;9.206;2022-12-18T12:51:09;53.13;;;37.97;;
16994;SDS011;8614;48.522;9.206;2022-12-18T12:53:40;55.83;;;38.37;;
16994;SDS011;8614;48.522;9.206;2022-12-18T12:56:08;61.07;;;40.83;;
16994;SDS011;8614;48.522;9.206;2022-12-18T12:58:40;55.17;;;37.97;;
16994;SDS011;8614;48.522;9.206;2022-12-18T13:01:17;48.73;;;35.17;;
16994;SDS011;8614;48.522;9.206;2022-12-18T13:03:54;56.77;;;36.40;;
16994;SDS011;8614;48.522;9.206;2022-12-18T13:06:39;59.63;;;36.30;;
16994;SDS011;8614;48.522;9.206;2022-12-18T13:09:09;54.67;;;37.30;;
16994;SDS011;8614;48.522;9.206;2022-12-18T13:11:37;55.60;;;39.37;;
16994;SDS011;8614;48.522;9.206;2022-12-18T13:14:25;55.93;;;36.63;;
16994;SDS011;8614;48.522;9.206;2022-12-18T13:20:03;56.43;;;37.40;;
16994;SDS011;8614;48.522;9.206;2022-12-18T13:22:36;54.07;;;36.17;;
16994;SDS011;8614;48.522;9.206;2022-12-18T13:28:07;56.13;;;38.57;;
16994;SDS011;8614;48.522;9.206;2022-12-18T13:30:42;55.30;;;37.33;;
16994;SDS011;8614;48.522;9.206;2022-12-18T13:33:34;59.70;;;38.50;;
16994;SDS011;8614;48.522;9.206;2022-12-18T13:36:14;61.43;;;40.00;;
16994;SDS011;8614;48.522;9.206;2022-12-18T13:39:10;60.03;;;40.90;;
16994;SDS011;8614;48.522;9.206;2022-12-18T13:41:51;59.43;;;38.33;;
16994;SDS011;8614;48.522;9.206;2022-12-18T13:44:24;51.17;;;37.30;;
16994;SDS011;8614;48.522;9.206;2022-12-18T13:46:56;47.97;;;36.43;;
16994;SDS011;8614;48.522;9.206;2022-12-18T13:49:25;56.97;;;37.97;;
16994;SDS011;8614;48.522;9.206;2022-12-18T13:51:58;52.60;;;35.57;;
16994;SDS011;8614;48.522;9.206;2022-12-18T13:54:27;50.77;;;35.13;;
16994;SDS011;8614;48.522;9.206;2022-12-18T13:56:59;46.70;;;34.67;;
16994;SDS011;8614;48.522;9.206;2022-12-18T13:59:26;48.60;;;35.10;;
16994;SDS011;8614;48.522;9.206;2022-12-18T14:01:59;46.97;;;32.83;;
16994;SDS011;8614;48.522;9.206;2022-12-18T14:04:34;49.70;;;36.40;;
16994;SDS011;8614;48.522;9.206;2022-12-18T14:07:02;54.90;;;38.57;;
16994;SDS011;8614;48.522;9.206;2022-12-18T14:09:34;56.00;;;36.37;;
16994;SDS011;8614;48.522;9.206;2022-12-18T14:12:02;55.53;;;39.90;;
16994;SDS011;8614;48.522;9.206;2022-12-18T14:14:49;56.80;;;38.70;;
16994;SDS011;8614;48.522;9.206;2022-12-18T14:17:18;58.40;;;38.67;;
16994;SDS011;8614;48.522;9.206;2022-12-18T14:19:47;56.40;;;41.57;;
16994;SDS011;8614;48.522;9.206;2022-12-18T14:22:17;56.10;;;38.97;;
16994;SDS011;8614;48.522;9.206;2022-12-18T14:24:45;55.83;;;39.27;;
16994;SDS011;8614;48.522;9.206;2022-12-18T14:27:17;58.07;;;40.47;;
16994;SDS011;8614;48.522;9.206;2022-12-18T14:29:47;60.90;;;40.63;;
16994;SDS011;8614;48.522;9.206;2022-12-18T14:32:15;60.80;;;41.17;;
16994;SDS011;8614;48.522;9.206;2022-12-18T14:34:43;56.57;;;40.20;;
16994;SDS011;8614;48.522;9.206;2022-12-18T14:37:13;62.13;;;41.70;;
16994;SDS011;8614;48.522;9.206;2022-12-18T14:39:51;61.27;;;38.97;;
16994;SDS011;8614;48.522;9.206;2022-12-18T14:42:19;59.73;;;39.87;;
16994;SDS011;8614;48.522;9.206;2022-12-18T14:44:46;50.80;;;37.23;;
16994;SDS011;8614;48.522;9.206;2022-12-18T14:47:14;53.70;;;37.17;;
16994;SDS011;8614;48.522;9.206;2022-12-18T14:49:41;59.47;;;38.00;;
16994;SDS011;8614;48.522;9.206;2022-12-18T14:52:16;50.87;;;36.50;;
16994;SDS011;8614;48.522;9.206;2022-12-18T14:54:53;52.00;;;36.20;;
16994;SDS011;8614;48.522;9.206;2022-12-18T14:57:22;50.10;;;34.63;;
16994;SDS011;8614;48.522;9.206;2022-12-18T14:59:51;53.67;;;34.27;;
16994;SDS011;8614;48.522;9.206;2022-12-18T15:02:19;61.67;;;38.47;;
16994;SDS011;8614;48.522;9.206;2022-12-18T15:04:58;62.60;;;40.13;;
16994;SDS011;8614;48.522;9.206;2022-12-18T15:07:33;57.23;;;39.07;;
16994;SDS011;8614;48.522;9.206;2022-12-18T15:10:10;52.40;;;37.07;;
16994;SDS011;8614;48.522;9.206;2022-12-18T15:12:40;51.07;;;36.10;;
16994;SDS011;8614;48.522;9.206;2022-12-18T15:18:12;59.67;;;38.57;;
16994;SDS011;8614;48.522;9.206;2022-12-18T15:20:43;55.87;;;37.63;;
16994;SDS011;8614;48.522;9.206;2022-12-18T15:23:15;56.60;;;37.23;;
16994;SDS011;8614;48.522;9.206;2022-12-18T15:25:44;52.73;;;38.10;;
16994;SDS011;8614;48.522;9.206;2022-12-18T15:28:17;55.13;;;36.13;;
16994;SDS011;8614;48.522;9.206;2022-12-18T15:31:02;60.50;;;38.97;;
16994;SDS011;8614;48.522;9.206;2022-12-18T15:33:31;55.90;;;37.40;;
16994;SDS011;8614;48.522;9.206;2022-12-18T15:36:00;54.53;;;36.77;;
16994;SDS011;8614;48.522;9.206;2022-12-18T15:38:30;56.53;;;36.37;;
16994;SDS011;8614;48.522;9.206;2022-12-18T15:40:57;60.40;;;39.70;;
16994;SDS011;8614;48.522;9.206;2022-12-18T15:43:24;46.80;;;34.90;;
16994;SDS011;8614;48.522;9.206;2022-12-18T15:46:01;59.50;;;37.10;;
16994;SDS011;8614;48.522;9.206;2022-12-18T15:48:28;52.10;;;35.93;;
16994;SDS011;8614;48.522;9.206;2022-12-18T15:50:56;58.87;;;38.80;;
16994;SDS011;8614;48.522;9.206;2022-12-18T15:53:24;61.63;;;39.60;;
16994;SDS011;8614;48.522;9.206;2022-12-18T15:55:54;59.90;;;37.63;;
16994;SDS011;8614;48.522;9.206;2022-12-18T15:58:39;55.53;;;37.40;;
16994;SDS011;8614;48.522;9.206;2022-12-18T16:01:06;57.30;;;38.23;;
16994;SDS011;8614;48.522;9.206;2022-12-18T16:03:35;60.47;;;39.00;;
16994;SDS011;8614;48.522;9.206;2022-12-18T16:06:02;57.50;;;39.23;;
16994;SDS011;8614;48.522;9.206;2022-12-18T16:08:29;62.10;;;39.43;;
16994;SDS011;8614;48.522;9.206;2022-12-18T16:10:58;62.13;;;39.90;;
16994;SDS011;8614;48.522;9.206;2022-12-18T16:13:25;59.00;;;40.43;;
16994;SDS011;8614;48.522;9.206;2022-12-18T16:15:52;56.93;;;39.83;;
16994;SDS011;8614;48.522;9.206;2022-12-18T16:18:19;62.53;;;40.70;;
16994;SDS011;8614;48.522;9.206;2022-12-18T16:20:46;56.80;;;38.07;;
16994;SDS011;8614;48.522;9.206;2022-12-18T16:23:13;57.60;;;39.07;;
16994;SDS011;8614;48.522;9.206;2022-12-18T16:25:40;69.37;;;38.80;;
16994;SDS011;8614;48.522;9.206;2022-12-18T16:28:08;58.20;;;38.33;;
16994;SDS011;8614;48.522;9.206;2022-12-18T16:30:35;61.63;;;38.87;;
16994;SDS011;8614;48.522;9.206;2022-12-18T16:33:02;63.07;;;40.77;;
16994;SDS011;8614;48.522;9.206;2022-12-18T16:35:29;59.73;;;40.47;;
16994;SDS011;8614;48.522;9.206;2022-12-18T16:37:57;57.80;;;38.57;;
16994;SDS011;8614;48.522;9.206;2022-12-18T16:40:24;50.73;;;36.47;;
16994;SDS011;8614;48.522;9.206;2022-12-18T16:42:51;60.83;;;37.90;;
16994;SDS011;8614;48.522;9.206;2022-12-18T16:45:19;58.80;;;38.07;;
16994;SDS011;8614;48.522;9.206;2022-12-18T16:47:46;55.40;;;36.83;;
16994;SDS011;8614;48.522;9.206;2022-12-18T16:50:13;56.63;;;36.83;;
16994;SDS011;8614;48.522;9.206;2022-12-18T16:52:40;50.20;;;32.87;;
16994;SDS011;8614;48.522;9.206;2022-12-18T16:55:08;52.17;;;34.43;;
16994;SDS011;8614;48.522;9.206;2022-12-18T16:57:35;47.53;;;29.33;;
16994;SDS011;8614;48.522;9.206;2022-12-18T17:00:02;42.40;;;29.80;;
16994;SDS011;8614;48.522;9.206;2022-12-18T17:02:31;43.27;;;29.27;;
16994;SDS011;8614;48.522;9.206;2022-12-18T17:04:58;46.70;;;29.40;;
16994;SDS011;8614;48.522;9.206;2022-12-18T17:07:25;41.17;;;25.93;;
16994;SDS011;8614;48.522;9.206;2022-12-18T17:09:53;39.57;;;27.03;;
16994;SDS011;8614;48.522;9.206;2022-12-18T17:12:20;43.00;;;27.90;;
16994;SDS011;8614;48.522;9.206;2022-12-18T17:14:47;38.23;;;26.90;;
16994;SDS011;8614;48.522;9.206;2022-12-18T17:17:14;49.50;;;33.43;;
16994;SDS011;8614;48.522;9.206;2022-12-18T17:19:42;46.17;;;31.70;;
16994;SDS011;8614;48.522;9.206;2022-12-18T17:22:09;73.13;;;42.73;;
16994;SDS011;8614;48.522;9.206;2022-12-18T17:24:36;60.40;;;39.67;;
16994;SDS011;8614;48.522;9.206;2022-12-18T17:27:03;69.13;;;44.80;;
16994;SDS011;8614;48.522;9.206;2022-12-18T17:29:30;71.10;;;44.10;;
16994;SDS011;8614;48.522;9.206;2022-12-18T17:31:57;77.00;;;47.53;;
16994;SDS011;8614;48.522;9.206;2022-12-18T17:34:24;71.53;;;43.43;;
16994;SDS011;8614;48.522;9.206;2022-12-18T17:36:52;67.17;;;43.53;;
16994;SDS011;8614;48.522;9.206;2022-12-18T17:39:19;68.33;;;42.93;;
16994;SDS011;8614;48.522;9.206;2022-12-18T17:41:46;71.43;;;45.60;;
16994;SDS011;8614;48.522;9.206;2022-12-18T17:44:13;64.43;;;40.70;;
16994;SDS011;8614;48.522;9.206;2022-12-18T17:46:41;62.87;;;41.23;;
16994;SDS011;8614;48.522;9.206;2022-12-18T17:49:08;56.37;;;39.73;;
16994;SDS011;8614;48.522;9.206;2022-12-18T17:51:35;56.03;;;38.27;;
16994;SDS011;8614;48.522;9.206;2022-12-18T17:54:04;63.63;;;40.60;;
16994;SDS011;8614;48.522;9.206;2022-12-18T17:56:31;59.27;;;38.37;;
16994;SDS011;8614;48.522;9.206;2022-12-18T17:58:58;57.67;;;38.50;;
16994;SDS011;8614;48.522;9.206;2022-12-18T18:01:25;56.17;;;38.13;;
16994;SDS011;8614;48.522;9.206;2022-12-18T18:03:54;59.33;;;40.27;;
16994;SDS011;8614;48.522;9.206;2022-12-18T18:06:22;54.37;;;38.50;;
16994;SDS011;8614;48.522;9.206;2022-12-18T18:08:49;51.70;;;36.70;;
16994;SDS011;8614;48.522;9.206;2022-12-18T18:11:18;49.43;;;34.67;;